Time;durP1;ratioP1;P1;durP2;ratioP2;P2;SDS_P1;SDS_P2;PMS_P1;PMS_P2;Temp;Humidity;BMP_temperature;BMP_pressure;BME280_temperature;BME280_humidity;BME280_pressure;Samples;Min_cycle;Max_cycle;Signal;HPM_P1;HPM_P2
2022/05/04 05:04:15;;;;;;;4.57;3.42;;;;;;;7.29;69.28;101753.69;4831215;29;20054;-94
2022/05/04 05:06:44;;;;;;;6.43;3.80;;;;;;;7.26;69.26;101759.41;4809556;29;20047;-93
2022/05/04 05:09:09;;;;;;;6.65;3.78;;;;;;;7.25;70.16;101760.44;4823943;29;20038;-95
2022/05/04 05:11:39;;;;;;;8.02;4.70;;;;;;;7.22;70.69;101766.19;4824845;29;20136;-96
2022/05/04 05:16:49;;;;;;;8.82;4.28;;;;;;;7.27;70.36;101774.59;4825493;29;20419;-95
2022/05/04 05:19:17;;;;;;;6.38;3.97;;;;;;;7.20;70.77;101769.06;4825431;29;20038;-95
2022/05/04 05:21:47;;;;;;;7.95;3.75;;;;;;;7.20;70.29;101763.66;4824113;29;20484;-96
2022/05/04 05:24:13;;;;;;;7.55;4.15;;;;;;;7.25;70.73;101768.53;4824328;29;20046;-95
2022/05/04 05:26:41;;;;;;;6.78;3.65;;;;;;;7.29;70.49;101763.63;4824274;29;20030;-96
2022/05/04 05:29:07;;;;;;;6.82;4.05;;;;;;;7.29;71.95;101769.03;4824388;29;20030;-95
2022/05/04 05:31:35;;;;;;;6.57;3.85;;;;;;;7.33;70.41;101770.38;4824509;29;20498;-95
2022/05/04 05:34:01;;;;;;;6.82;3.88;;;;;;;7.37;70.83;101775.25;4825150;29;20484;-96
2022/05/04 05:36:26;;;;;;;6.05;3.90;;;;;;;7.39;70.38;101766.97;4824642;29;20026;-96
2022/05/04 05:38:52;;;;;;;4.05;3.50;;;;;;;7.42;69.71;101769.34;4936385;23;20057;-89
2022/05/04 05:41:31;;;;;;;8.90;3.80;;;;;;;7.47;69.49;101763.41;4867550;29;20036;-95
2022/05/04 05:44:15;;;;;;;8.25;3.72;;;;;;;7.52;69.84;101759.19;4867851;29;20048;-96
2022/05/04 05:47:09;;;;;;;4.80;3.40;;;;;;;7.52;69.11;101759.19;4869358;29;20072;-96
2022/05/04 05:50:07;;;;;;;7.05;3.50;;;;;;;7.66;68.59;101768.44;4882717;29;20029;-93
2022/05/04 05:55:13;;;;;;;6.60;3.53;;;;;;;7.66;68.98;101765.75;5484393;23;20262;-94
2022/05/04 05:59:21;;;;;;;;;;;;;;;;;;;;;
2022/05/04 06:02:49;;;;;;;6.85;3.58;;;;;;;7.80;68.50;101772.28;4885806;29;20096;-96
2022/05/04 06:13:09;;;;;;;5.30;4.15;;;;;;;7.99;68.06;101783.69;4880772;29;20041;-92
2022/05/04 06:16:34;;;;;;;;;;;;;;;;;;;;;
2022/05/04 06:37:33;;;;;;;;;;;;;;;;;;;;;
2022/05/04 06:44:03;;;;;;;6.05;3.75;;;;;;;9.04;65.33;101804.06;4958135;29;20050;-94
2022/05/04 07:38:59;;;;;;;;;;;;;;;;;;;;;
2022/05/04 07:44:52;;;;;;;4.40;3.60;;;;;;;10.19;60.36;101781.97;4996904;28;20109;-95
2022/05/04 07:47:18;;;;;;;4.68;3.50;;;;;;;10.22;60.50;101794.31;4977887;28;20181;-89
2022/05/04 07:49:44;;;;;;;4.15;3.55;;;;;;;10.30;60.12;101794.19;4977973;28;20039;-89
2022/05/04 07:52:10;;;;;;;5.60;4.15;;;;;;;10.31;59.10;101789.63;4977848;28;20639;-88
2022/05/04 07:54:35;;;;;;;6.43;3.67;;;;;;;10.30;59.97;101779.78;4977684;28;20033;-89
2022/05/04 07:57:04;;;;;;;4.68;4.05;;;;;;;10.36;59.74;101792.63;4977465;28;20027;-89
2022/05/04 07:59:32;;;;;;;5.22;4.45;;;;;;;10.36;60.00;101789.91;4977589;28;20037;-92
2022/05/04 08:04:45;;;;;;;6.00;4.80;;;;;;;10.42;59.36;101794.56;4995367;28;20040;-90
2022/05/04 08:07:10;;;;;;;6.45;4.63;;;;;;;10.42;59.10;101791.03;4994434;28;20030;-90
2022/05/04 08:09:36;;;;;;;5.38;4.75;;;;;;;10.49;59.86;101805.50;4972994;28;20030;-93
2022/05/04 08:12:08;;;;;;;6.30;4.53;;;;;;;10.47;59.26;101800.28;4960980;28;20541;-94
2022/05/04 08:14:35;;;;;;;7.97;4.60;;;;;;;10.55;59.21;101796.59;4961405;28;20050;-95
2022/05/04 08:17:01;;;;;;;6.20;4.90;;;;;;;10.58;58.87;101795.38;4959416;28;20062;-95
2022/05/04 08:19:26;;;;;;;7.97;5.10;;;;;;;10.60;58.91;101790.59;4993599;28;20431;-92
2022/05/04 08:22:00;;;;;;;6.70;4.57;;;;;;;10.60;58.96;101799.59;4978477;28;20030;-93
2022/05/04 08:24:30;;;;;;;7.22;4.88;;;;;;;10.60;58.53;101796.00;4978574;28;20031;-94
2022/05/04 08:27:00;;;;;;;7.18;5.30;;;;;;;10.61;58.37;101781.41;4978041;28;20038;-92
2022/05/04 08:29:26;;;;;;;7.35;5.50;;;;;;;10.69;58.91;101803.84;4962647;28;20085;-93
2022/05/04 08:31:59;;;;;;;7.75;5.85;;;;;;;10.69;59.14;101787.56;4962384;28;20056;-93
2022/05/04 08:34:25;;;;;;;6.68;5.38;;;;;;;10.77;58.25;101789.31;4977364;28;20026;-93
2022/05/04 08:36:50;;;;;;;6.70;5.10;;;;;;;10.81;58.19;101790.59;4958209;28;20030;-93
2022/05/04 08:39:25;;;;;;;5.38;4.88;;;;;;;10.88;58.02;101798.84;4959303;28;20054;-93
2022/05/04 08:41:56;;;;;;;5.18;4.50;;;;;;;10.97;57.76;101785.94;4975954;28;20038;-93
2022/05/04 08:44:33;;;;;;;6.83;5.73;;;;;;;11.09;57.51;101797.09;4974982;28;20635;-95
2022/05/04 08:47:01;;;;;;;9.73;6.63;;;;;;;11.16;57.06;101798.00;4960715;28;20086;-93
2022/05/04 08:49:29;;;;;;;8.68;6.45;;;;;;;11.22;56.26;101791.81;4958552;28;20498;-94
2022/05/04 08:52:01;;;;;;;8.77;6.07;;;;;;;11.28;56.40;101785.59;4977524;28;20117;-96
2022/05/04 08:54:27;;;;;;;6.97;5.82;;;;;;;11.36;56.16;101784.59;4978279;28;20038;-96
2022/05/04 08:56:54;;;;;;;7.57;5.97;;;;;;;11.37;56.34;101780.84;4978828;28;20030;-96
2022/05/04 08:59:29;;;;;;;7.43;5.70;;;;;;;11.44;55.87;101780.88;4962647;28;20081;-96
2022/05/04 09:01:55;;;;;;;5.47;4.95;;;;;;;11.48;55.97;101779.44;4963720;28;20494;-96
2022/05/04 09:04:23;;;;;;;5.35;4.70;;;;;;;11.61;56.25;101778.72;4977003;28;20110;-96
2022/05/04 09:07:00;;;;;;;5.40;4.90;;;;;;;11.75;55.42;101788.59;4980285;28;20042;-96
2022/05/04 09:09:35;;;;;;;8.18;6.25;;;;;;;11.75;53.91;101780.44;4963818;28;20030;-94
2022/05/04 09:12:04;;;;;;;7.72;6.18;;;;;;;11.74;54.60;101773.34;4978489;28;20089;-94
2022/05/04 09:14:35;;;;;;;6.90;5.47;;;;;;;11.77;54.77;101781.94;4976803;28;20062;-96
2022/05/04 09:17:11;;;;;;;8.43;5.55;;;;;;;11.83;54.77;101790.34;4978652;28;20035;-96
2022/05/04 09:20:45;;;;;;;6.97;5.20;;;;;;;11.90;54.08;101778.44;4964151;28;20035;-96
2022/05/04 09:22:30;;;;;;;8.35;5.50;;;;;;;12.01;54.12;101771.63;4979031;28;20043;-96
2022/05/04 09:25:19;;;;;;;6.53;4.95;;;;;;;12.11;53.78;101768.53;4978289;28;20039;-96
2022/05/04 09:27:56;;;;;;;5.65;5.05;;;;;;;12.21;53.31;101768.13;4978473;28;20030;-96
2022/05/04 09:30:27;;;;;;;5.47;4.97;;;;;;;12.35;53.24;101764.44;4977410;28;20121;-95
2022/05/04 09:32:56;;;;;;;6.93;5.10;;;;;;;12.51;53.23;101765.94;4978014;28;20122;-96
2022/05/04 09:35:27;;;;;;;7.53;5.55;;;;;;;12.62;53.44;101770.78;4961810;28;20046;-96
2022/05/04 09:47:09;;;;;;;9.73;6.72;;;;;;;12.88;51.94;101755.50;4979378;28;20077;-96
2022/05/04 09:49:37;;;;;;;10.00;6.70;;;;;;;12.81;51.85;101755.53;4962114;28;20046;-96
2022/05/04 09:52:04;;;;;;;8.13;6.40;;;;;;;12.89;51.13;101765.38;4961755;28;20031;-96
2022/05/04 09:54:45;;;;;;;;;;;;;;;;;;;;;
2022/05/04 09:57:12;;;;;;;7.50;5.50;;;;;;;13.11;50.90;101763.28;4963284;28;20039;-96
2022/05/04 09:59:45;;;;;;;7.38;5.30;;;;;;;13.28;51.24;101758.22;4978255;28;20109;-96
2022/05/04 10:02:13;;;;;;;9.93;6.03;;;;;;;13.33;49.09;101757.59;4977010;28;20468;-96
2022/05/04 10:05:00;;;;;;;;;;;;;;;;;;;;;
2022/05/04 10:07:36;;;;;;;6.50;5.50;;;;;;;13.46;49.65;101754.03;4978233;28;20051;-96
2022/05/04 10:10:13;;;;;;;6.55;5.28;;;;;;;13.62;48.96;101761.75;4976709;28;20121;-95
2022/05/04 10:12:50;;;;;;;5.45;4.85;;;;;;;13.76;48.65;101750.81;4977210;28;20033;-96
2022/05/04 10:15:26;;;;;;;5.82;5.22;;;;;;;13.92;47.74;101750.38;4977484;28;20061;-96
2022/05/04 10:18:14;;;;;;;6.93;5.00;;;;;;;13.98;48.42;101746.78;4977270;28;20113;-96
2022/05/04 10:20:45;;;;;;;5.45;4.55;;;;;;;14.11;48.14;101745.84;4950713;28;20542;-95
2022/05/04 10:24:02;;;;;;;7.28;5.35;;;;;;;14.25;46.26;101748.53;4977512;28;20515;-95
2022/05/04 10:26:44;;;;;;;7.00;4.93;;;;;;;14.14;46.06;101739.97;4973219;28;20038;-96
2022/05/04 10:32:36;;;;;;;4.72;4.05;;;;;;;14.82;46.84;101749.47;4973412;28;20402;-96
2022/05/04 10:35:20;;;;;;;6.28;4.78;;;;;;;15.03;46.42;101737.31;4960815;28;20547;-96
2022/05/04 10:38:00;;;;;;;8.38;5.47;;;;;;;15.19;45.60;101749.56;4976866;28;20082;-93
2022/05/04 10:40:54;;;;;;;;;;;;;;;;;;;;;
2022/05/04 10:43:55;;;;;;;;;;;;;;;;;;;;;
2022/05/04 10:46:40;;;;;;;6.00;4.88;;;;;;;15.75;44.85;101728.59;4977155;28;20065;-94
2022/05/04 10:49:42;;;;;;;;;;;;;;;;;;;;;
2022/05/04 10:52:14;;;;;;;6.90;4.70;;;;;;;16.31;42.52;101734.00;4984182;28;20034;-95
2022/05/04 10:55:13;;;;;;;;;;;;;;;;;;;;;
2022/05/04 10:58:26;;;;;;;6.95;4.65;;;;;;;16.54;42.49;101724.19;4996843;28;20044;-95
2022/05/04 11:01:36;;;;;;;;;;;;;;;;;;;;;
2022/05/04 11:04:45;;;;;;;6.65;5.05;;;;;;;17.53;40.48;101720.84;4996312;28;20038;-94
2022/05/04 11:10:27;;;;;;;5.68;4.50;;;;;;;17.59;40.48;101728.09;4992420;28;20483;-91
2022/05/04 11:13:34;;;;;;;;;;;;;;;;;;;;;
2022/05/04 11:16:34;;;;;;;;;;;;;;;;;;;;;
2022/05/04 11:19:58;;;;;;;5.35;4.25;;;;;;;23.43;31.90;101704.81;4991338;28;20045;-92
2022/05/04 11:22:25;;;;;;;6.15;4.07;;;;;;;27.91;27.29;101704.91;4992157;28;20030;-92
2022/05/04 11:25:02;;;;;;;4.63;3.47;;;;;;;30.17;22.80;101697.31;4979503;28;20122;-91
2022/05/04 11:31:07;;;;;;;4.80;3.42;;;;;;;33.18;18.65;101695.75;4981452;28;20046;-91
2022/05/04 11:36:56;;;;;;;6.38;3.47;;;;;;;35.20;19.81;101696.91;4968967;28;20038;-90
2022/05/04 11:39:56;;;;;;;5.50;3.30;;;;;;;36.68;18.74;101677.56;4995223;28;20145;-92
2022/05/04 11:43:13;;;;;;;;;;;;;;;;;;;;;
2022/05/04 11:45:35;;;;;;;2.75;2.47;;;;;;;39.51;17.39;101672.22;4977147;28;20050;-90
2022/05/04 11:48:47;;;;;;;3.65;2.78;;;;;;;39.76;16.48;101667.56;4978643;28;20490;-92
2022/05/04 11:57:20;;;;;;;;;;;;;;;;;;;;;
2022/05/04 12:10:10;;;;;;;2.60;2.40;;;;;;;43.00;11.22;101637.69;5205889;23;20055;-89
2022/05/04 12:12:58;;;;;;;;;;;;;;;;;;;;;
2022/05/04 12:15:37;;;;;;;4.63;3.25;;;;;;;42.88;10.72;101621.09;4959812;29;20543;-96
2022/05/04 12:18:05;;;;;;;3.08;2.50;;;;;;;43.11;9.88;101623.31;4940439;29;20039;-94
2022/05/04 12:20:34;;;;;;;1.90;1.75;;;;;;;43.35;10.32;101626.34;4942918;29;20066;-89
2022/05/04 12:26:44;;;;;;;3.45;2.42;;;;;;;44.27;10.90;101606.41;4898064;29;20039;-95
2022/05/04 12:35:01;;;;;;;;;;;;;;;;;;;;;
2022/05/04 12:37:37;;;;;;;3.90;2.60;;;;;;;42.50;10.00;101603.88;4940159;29;20041;-93
2022/05/04 12:43:03;;;;;;;3.37;2.70;;;;;;;43.72;8.99;101607.53;5053977;23;20059;-96
2022/05/04 12:45:46;;;;;;;3.10;2.65;;;;;;;43.28;10.87;101605.19;4925811;29;20099;-96
2022/05/04 12:48:12;;;;;;;4.15;2.47;;;;;;;44.22;9.34;101597.47;4929568;29;20040;-95
2022/05/04 12:53:45;;;;;;;;;;;;;;;;;;;;;
2022/05/04 12:59:31;;;;;;;2.30;2.10;;;;;;;47.21;8.87;101593.97;4982688;28;20061;-96
2022/05/04 13:07:15;;;;;;;;;;;;;;;;;;;;;
2022/05/04 13:09:52;;;;;;;3.72;2.30;;;;;;;46.74;7.92;101592.38;4959470;28;20131;-92
2022/05/04 13:12:31;;;;;;;2.72;2.20;;;;;;;47.18;7.98;101595.69;4957651;28;20379;-90
2022/05/04 13:15:39;;;;;;;;;;;;;;;;;;;;;
2022/05/04 13:27:39;;;;;;;;;;;;;;;;;;;;;
2022/05/04 13:30:32;;;;;;;3.63;2.53;;;;;;;46.35;7.40;101572.03;4926780;28;20429;-89
2022/05/04 13:33:01;;;;;;;2.42;2.22;;;;;;;46.26;6.99;101566.13;4936998;29;20043;-91
2022/05/04 13:36:16;;;;;;;2.63;2.10;;;;;;;46.87;7.46;101567.41;4938796;29;20055;-96
2022/05/04 13:38:59;;;;;;;3.17;2.38;;;;;;;46.96;7.24;101571.69;4931493;29;20051;-93
2022/05/04 13:41:45;;;;;;;2.50;2.30;;;;;;;46.98;6.88;101578.59;4928668;28;20038;-92
2022/05/04 13:45:15;;;;;;;;;;;;;;;;;;;;;
2022/05/04 13:47:37;;;;;;;2.28;2.08;;;;;;;46.25;7.52;101564.50;4942718;29;20054;-94
2022/05/04 13:53:28;;;;;;;;;;;;;;;;;;;;;
2022/05/04 13:56:17;;;;;;;2.97;2.33;;;;;;;47.59;7.07;101561.69;4951674;29;20047;-92
2022/05/04 13:58:50;;;;;;;3.50;2.20;;;;;;;47.99;6.98;101558.38;4931510;29;20031;-91
2022/05/04 14:01:21;;;;;;;2.20;1.95;;;;;;;48.49;6.59;101561.69;4925781;29;20042;-91
2022/05/04 14:03:48;;;;;;;5.05;2.80;;;;;;;48.38;6.62;101555.47;4910406;29;20113;-92
2022/05/04 14:06:26;;;;;;;5.40;2.63;;;;;;;47.59;6.93;101553.88;4921674;29;20036;-91
2022/05/04 14:08:54;;;;;;;4.18;2.80;;;;;;;46.51;7.34;101548.25;4922383;29;20119;-92
2022/05/04 14:11:27;;;;;;;3.20;2.40;;;;;;;45.05;7.69;101539.69;4922460;29;20377;-91
2022/05/04 14:15:01;;;;;;;2.50;2.30;;;;;;;45.39;7.97;101552.06;4922097;29;20034;-91
2022/05/04 14:16:42;;;;;;;2.50;2.30;;;;;;;46.36;7.38;101539.22;4938404;29;20069;-92
2022/05/04 14:19:17;;;;;;;4.22;2.70;;;;;;;46.73;7.15;101537.03;4922179;29;20027;-92
2022/05/04 14:21:43;;;;;;;3.88;2.70;;;;;;;46.99;7.37;101544.97;4921836;29;20034;-92
2022/05/04 14:24:21;;;;;;;3.55;2.30;;;;;;;47.26;7.11;101538.84;4921608;29;20028;-92
2022/05/04 14:26:51;;;;;;;3.58;2.72;;;;;;;47.67;6.99;101536.41;4907081;29;20512;-92
2022/05/04 14:29:19;;;;;;;2.60;2.33;;;;;;;47.76;6.79;101537.34;4922821;29;20051;-92
2022/05/04 14:31:49;;;;;;;2.70;2.30;;;;;;;47.99;6.99;101528.81;4921665;29;20040;-92
2022/05/04 14:34:19;;;;;;;3.80;2.53;;;;;;;47.42;6.44;101532.22;4922329;29;20376;-91
2022/05/04 14:36:45;;;;;;;4.00;2.73;;;;;;;46.49;7.16;101541.34;4906026;29;20306;-92
2022/05/04 14:39:18;;;;;;;3.20;2.60;;;;;;;45.77;7.17;101529.56;4922108;29;20280;-91
2022/05/04 14:41:46;;;;;;;3.00;2.35;;;;;;;45.72;7.41;101530.09;4906701;29;20047;-91
2022/05/04 14:44:15;;;;;;;2.92;2.13;;;;;;;45.87;7.29;101521.97;4921563;29;20036;-91
2022/05/04 14:46:43;;;;;;;2.70;2.50;;;;;;;45.74;7.13;101523.91;4921520;29;20028;-92
2022/05/04 14:49:14;;;;;;;3.83;2.40;;;;;;;45.48;7.63;101524.47;4921285;29;20031;-92
2022/05/04 14:51:39;;;;;;;2.75;2.45;;;;;;;45.21;7.39;101535.28;4905752;29;20063;-91
2022/05/04 14:54:20;;;;;;;3.45;2.40;;;;;;;45.11;7.91;101528.53;4921055;29;20071;-92
2022/05/04 14:57:07;;;;;;;3.13;2.50;;;;;;;45.50;7.31;101524.03;4906946;29;20031;-93
2022/05/04 14:59:32;;;;;;;3.35;2.13;;;;;;;45.80;7.34;101534.41;4907000;29;20477;-90
2022/05/04 15:02:09;;;;;;;2.30;2.10;;;;;;;45.45;7.45;101522.50;4921249;29;20036;-89
2022/05/04 15:07:37;;;;;;;;;;;;;;;;;;;;;
2022/05/04 15:10:11;;;;;;;2.25;2.00;;;;;;;38.64;11.17;101520.44;4923602;29;20042;-94
2022/05/04 15:48:54;;;;;;;;;;;;;;;;;;;;;
2022/05/04 15:52:03;;;;;;;;;;;;;;;;;;;;;
2022/05/04 16:01:59;;;;;;;4.22;3.25;;;;;;;22.77;25.45;101542.50;4823083;29;20369;-93
2022/05/04 16:05:09;;;;;;;4.70;3.70;;;;;;;22.59;26.46;101546.72;4876853;29;20052;-92
2022/05/04 16:08:14;;;;;;;6.15;4.88;;;;;;;22.48;26.96;101545.06;4878140;29;20041;-93
2022/05/04 16:11:23;;;;;;;8.85;5.50;;;;;;;22.41;27.29;101556.41;4865019;29;20041;-93
2022/05/04 16:14:38;;;;;;;8.43;5.85;;;;;;;21.80;28.42;101541.44;4953206;29;20134;-92
2022/05/04 16:27:45;;;;;;;9.18;5.32;;;;;;;21.09;30.15;101556.69;4842346;29;20136;-94
2022/05/04 16:30:28;;;;;;;6.43;4.45;;;;;;;21.18;30.04;101555.06;4817962;29;20103;-92
2022/05/04 18:06:16;;;;;;;;;;;;;;;;;;;;;
2022/05/04 18:09:00;;;;;;;;;;;;;;;;;;;;;
2022/05/04 18:12:40;;;;;;;6.35;5.63;;;;;;;17.87;37.39;101570.03;4749962;29;20065;-93
2022/05/04 18:14:59;;;;;;;7.93;6.15;;;;;;;17.72;39.79;101573.31;4796833;29;20038;-93
2022/05/04 18:17:29;;;;;;;7.68;6.00;;;;;;;17.64;38.38;101582.78;4831905;29;20050;-92
2022/05/04 18:20:07;;;;;;;7.55;6.35;;;;;;;17.58;38.93;101581.00;4909119;28;20051;-92
2022/05/04 18:23:08;;;;;;;6.65;5.78;;;;;;;17.50;40.14;101587.72;4959893;28;20403;-93
2022/05/04 18:25:37;;;;;;;7.43;6.05;;;;;;;17.36;41.00;101589.91;4951303;28;20487;-93
2022/05/04 18:35:23;;;;;;;;;;;;;;;;;;;;;
2022/05/04 18:53:02;;;;;;;7.30;5.25;;;;;;;16.00;45.64;101614.63;4724941;30;20177;-94
2022/05/04 19:06:50;;;;;;;8.05;6.68;;;;;;;15.56;45.62;101634.75;4713662;30;20051;-95
2022/05/04 19:10:17;;;;;;;;;;;;;;;;;;;;;
2022/05/04 19:21:26;;;;;;;;;;;;;;;;;;;;;
2022/05/04 19:42:45;;;;;;;;;;;;;;;;;;;;;
2022/05/04 19:49:37;;;;;;;;;;;;;;;;;;;;;
2022/05/04 20:38:59;;;;;;;10.73;7.78;;;;;;;13.02;55.31;101729.13;4709086;30;20052;-93
2022/05/04 20:44:55;;;;;;;7.93;7.03;;;;;;;12.87;57.31;101732.03;4822625;29;20421;-93
2022/05/04 20:48:11;;;;;;;;;;;;;;;;;;;;;
2022/05/04 20:54:05;;;;;;;7.40;6.63;;;;;;;12.70;55.77;101730.78;4845446;29;20052;-93
2022/05/04 21:00:21;;;;;;;8.65;7.70;;;;;;;12.61;58.41;101741.88;4838953;29;20041;-93
2022/05/04 21:07:01;;;;;;;10.10;7.43;;;;;;;12.53;56.99;101733.06;4898192;29;20620;-93
2022/05/04 21:12:38;;;;;;;7.32;6.55;;;;;;;12.40;58.82;101752.91;4905745;29;20043;-93
2022/05/04 21:18:41;;;;;;;8.32;7.35;;;;;;;12.35;59.08;101758.16;4933807;29;20043;-94
2022/05/04 21:24:28;;;;;;;;;;;;;;;;;;;;;
2022/05/04 21:27:10;;;;;;;;;;;;;;;;;;;;;
2022/05/04 21:30:00;;;;;;;;;;;;;;;;;;;;;
2022/05/04 21:35:23;;;;;;;8.07;6.32;;;;;;;11.93;58.91;101761.75;4932941;29;20138;-94
2022/05/04 21:44:27;;;;;;;;;;;;;;;;;;;;;
2022/05/04 21:47:13;;;;;;;;;;;;;;;;;;;;;
2022/05/04 21:49:49;;;;;;;6.72;6.00;;;;;;;11.69;60.33;101773.09;4942421;29;20028;-93
2022/05/04 21:52:27;;;;;;;6.57;5.88;;;;;;;11.72;58.40;101767.25;4889988;29;20052;-94
2022/05/04 21:55:11;;;;;;;;;;;;;;;;;;;;;
2022/05/04 21:58:29;;;;;;;;;;;;;;;;;;;;;
2022/05/04 22:01:18;;;;;;;6.72;6.00;;;;;;;11.77;60.99;101791.97;4921256;29;20054;-94
2022/05/04 22:04:00;;;;;;;;;;;;;;;;;;;;;
2022/05/04 22:07:03;;;;;;;;;;;;;;;;;;;;;
2022/05/04 22:16:05;;;;;;;7.00;6.30;;;;;;;11.57;63.31;101787.25;4936193;29;20500;-93
2022/05/04 22:19:09;;;;;;;8.88;6.07;;;;;;;11.49;62.91;101792.00;4919651;29;20122;-94
2022/05/04 22:21:49;;;;;;;9.25;6.55;;;;;;;11.45;61.96;101797.00;4922491;29;20066;-93
2022/05/04 22:24:45;;;;;;;6.05;5.45;;;;;;;11.31;62.53;101796.06;4908473;29;20102;-93
2022/05/04 22:27:42;;;;;;;8.02;5.88;;;;;;;11.25;62.68;101796.84;4918531;29;20040;-93
2022/05/04 22:30:26;;;;;;;8.00;6.63;;;;;;;11.13;62.30;101801.13;4922373;29;20031;-93
2022/05/04 22:33:29;;;;;;;6.72;6.03;;;;;;;11.04;61.61;101795.84;4922439;29;20032;-93
2022/05/04 22:36:19;;;;;;;;;;;;;;;11.04;60.79;101814.00;4908237;29;20079;-93
2022/05/04 22:39:15;;;;;;;6.57;5.88;;;;;;;10.90;62.32;101804.91;4922597;29;20017;-93
2022/05/04 22:42:08;;;;;;;6.15;5.50;;;;;;;10.82;63.50;101802.28;4908945;29;20043;-93
2022/05/04 22:44:48;;;;;;;7.03;6.15;;;;;;;10.74;63.08;101797.84;4902883;29;20044;-93
2022/05/04 22:47:39;;;;;;;8.48;5.93;;;;;;;10.71;61.39;101798.22;4921942;29;20072;-93
2022/05/04 22:50:16;;;;;;;6.38;5.78;;;;;;;10.65;63.19;101804.44;4906984;29;20043;-93
2022/05/04 22:52:52;;;;;;;;;;;;;;;;;;;;;
2022/05/04 22:55:50;;;;;;;7.50;6.70;;;;;;;10.51;63.86;101804.28;4939613;29;20357;-94
2022/05/04 22:58:32;;;;;;;6.78;5.90;;;;;;;10.49;62.82;101805.50;4846805;29;20041;-94
2022/05/04 23:01:34;;;;;;;;;;;;;;;;;;;;;
2022/05/04 23:07:16;;;;;;;6.38;5.78;;;;;;;10.43;62.89;101812.53;4917857;29;20039;-94
2022/05/04 23:10:11;;;;;;;6.45;5.75;;;;;;;10.41;63.47;101819.19;4908278;29;20110;-94
2022/05/04 23:12:51;;;;;;;6.03;5.50;;;;;;;10.39;64.31;101818.53;4921886;29;20477;-94
2022/05/04 23:18:38;;;;;;;;;;;;;;;;;;;;;
2022/05/04 23:21:30;;;;;;;6.05;5.53;;;;;;;10.34;64.15;101819.13;4939016;29;20030;-94
2022/05/04 23:25:09;;;;;;;6.78;6.03;;;;;;;10.32;64.06;101807.59;4922562;29;20044;-94
2022/05/04 23:27:30;;;;;;;;;;;;;;;;;;;;;
2022/05/04 23:34:06;;;;;;;;;;;;;;;;;;;;;
2022/05/04 23:39:53;;;;;;;7.00;6.32;;;;;;;10.41;64.60;101828.19;4956528;29;20068;-94
2022/05/04 23:46:37;;;;;;;7.40;6.72;;;;;;;10.34;62.41;101817.22;4953617;29;20400;-94
2022/05/04 23:49:24;;;;;;;;;;;;;;;;;;;;;
2022/05/04 23:52:26;;;;;;;;;;;;;;;;;;;;;
2022/05/04 23:55:28;;;;;;;8.20;7.30;;;;;;;10.29;63.02;101822.38;4937368;29;20500;-94
